Time;durP1;ratioP1;P1;durP2;ratioP2;P2;SDS_P1;SDS_P2;PMS_P1;PMS_P2;Temp;Humidity;BMP_temperature;BMP_pressure;BME280_temperature;BME280_humidity;BME280_pressure;Samples;Min_cycle;Max_cycle;Signal;HPM_P1;HPM_P2
2022/11/08 00:02:23;;;;;;;33.85;12.70;;;;;;;2.98;80.75;99644.44;5098196;27;20412;-65
2022/11/08 00:04:48;;;;;;;26.55;13.98;;;;;;;2.92;80.41;99650.81;5096603;27;20404;-66
2022/11/08 00:15:22;;;;;;;41.30;16.27;;;;;;;2.79;81.42;99638.22;5113839;27;20117;-66
2022/11/08 00:17:47;;;;;;;38.33;18.38;;;;;;;2.81;81.37;99631.97;5106096;27;20132;-64
2022/11/08 00:20:11;;;;;;;39.70;17.58;;;;;;;2.73;82.07;99630.53;5098322;27;20041;-64
2022/11/08 00:22:36;;;;;;;34.22;15.32;;;;;;;2.84;82.03;99625.69;5100124;27;20129;-66
2022/11/08 00:25:01;;;;;;;26.38;13.07;;;;;;;2.89;81.72;99619.34;5082184;27;20053;-67
2022/11/08 00:27:26;;;;;;;37.15;15.18;;;;;;;2.79;81.70;99615.38;5099691;27;20130;-66
2022/11/08 00:29:51;;;;;;;43.63;17.17;;;;;;;2.90;81.45;99607.03;5091126;27;20046;-67
2022/11/08 00:32:19;;;;;;;28.05;11.40;;;;;;;2.95;81.73;99612.09;5117061;27;20074;-66
2022/11/08 00:34:43;;;;;;;30.83;12.57;;;;;;;2.94;81.33;99611.22;5083238;27;20039;-67
2022/11/08 00:37:08;;;;;;;22.45;10.77;;;;;;;2.89;81.46;99589.53;5113497;27;20042;-66
2022/11/08 00:39:33;;;;;;;36.58;16.80;;;;;;;2.83;81.63;99598.50;5101374;27;20096;-66
2022/11/08 00:41:58;;;;;;;33.75;16.67;;;;;;;2.90;81.94;99592.09;5103323;27;20039;-69
2022/11/08 00:44:22;;;;;;;31.73;12.90;;;;;;;2.93;81.93;99586.69;5082220;27;20581;-66
2022/11/08 00:46:47;;;;;;;46.78;17.23;;;;;;;2.79;82.31;99585.56;5109044;27;20039;-67
2022/11/08 00:49:12;;;;;;;42.25;19.52;;;;;;;2.75;83.00;99581.31;5105934;27;20589;-66
2022/11/08 00:51:37;;;;;;;42.85;20.38;;;;;;;2.74;83.24;99596.25;5081079;27;20039;-66
2022/11/08 00:54:05;;;;;;;36.05;15.48;;;;;;;2.86;82.98;99579.09;5099440;27;20054;-68
2022/11/08 00:56:30;;;;;;;33.17;16.17;;;;;;;2.75;83.34;99597.97;5103418;27;20187;-67
2022/11/08 00:58:55;;;;;;;36.67;16.27;;;;;;;2.82;83.65;99591.53;5085915;27;20448;-68
2022/11/08 01:01:20;;;;;;;37.22;18.52;;;;;;;2.81;83.63;99587.22;5104225;27;20445;-66
2022/11/08 01:03:46;;;;;;;34.80;16.17;;;;;;;2.85;83.58;99587.94;5084864;27;20096;-68
2022/11/08 01:06:13;;;;;;;30.83;13.50;;;;;;;2.96;83.47;99584.84;5102804;27;20126;-68
2022/11/08 01:08:38;;;;;;;33.42;16.85;;;;;;;2.93;83.40;99599.84;5103861;27;20035;-69
2022/11/08 01:11:06;;;;;;;37.13;17.38;;;;;;;2.99;83.62;99597.91;5103982;27;20039;-65
2022/11/08 01:13:31;;;;;;;33.92;15.43;;;;;;;3.00;83.64;99600.47;5102573;27;20111;-64
2022/11/08 01:15:56;;;;;;;33.03;16.23;;;;;;;3.06;83.42;99596.72;5102215;27;20062;-65
2022/11/08 01:18:20;;;;;;;36.55;16.42;;;;;;;3.10;83.35;99582.50;5101403;27;20085;-66
2022/11/08 01:20:47;;;;;;;36.15;15.57;;;;;;;3.12;82.89;99572.75;5103781;27;20042;-64
2022/11/08 01:23:12;;;;;;;41.20;16.25;;;;;;;3.13;82.69;99577.97;5103112;27;20062;-65
2022/11/08 01:25:42;;;;;;;30.85;15.60;;;;;;;3.10;83.04;99596.53;5103187;27;20039;-65
2022/11/08 01:28:07;;;;;;;30.88;14.75;;;;;;;3.15;83.18;99588.44;5103059;27;20090;-64
2022/11/08 01:30:38;;;;;;;32.00;15.32;;;;;;;3.19;82.96;99588.22;5104091;27;20166;-64
2022/11/08 01:33:03;;;;;;;34.72;14.75;;;;;;;3.20;83.44;99587.31;5100873;27;20461;-64
2022/11/08 01:35:30;;;;;;;32.42;15.77;;;;;;;3.22;83.54;99580.22;5125004;27;20042;-64
2022/11/08 01:37:55;;;;;;;38.67;17.27;;;;;;;3.25;82.55;99566.06;5096495;27;20106;-64
2022/11/08 01:40:19;;;;;;;30.73;12.73;;;;;;;3.32;82.38;99577.19;5114976;27;20058;-64
2022/11/08 01:42:44;;;;;;;36.88;17.65;;;;;;;3.21;82.33;99569.72;5109350;27;20047;-63
2022/11/08 01:45:10;;;;;;;33.60;16.40;;;;;;;3.09;82.31;99571.09;5093546;27;20070;-63
2022/11/08 01:47:35;;;;;;;34.85;18.20;;;;;;;3.03;82.97;99579.28;5087087;27;20049;-63
2022/11/08 01:50:04;;;;;;;32.80;15.90;;;;;;;3.11;83.02;99568.41;5108687;27;20117;-64
2022/11/08 01:52:36;;;;;;;34.15;15.80;;;;;;;3.08;82.87;99565.91;5118561;27;20125;-64
2022/11/08 01:55:13;;;;;;;36.22;16.52;;;;;;;3.10;83.23;99551.75;5113163;27;20534;-69
2022/11/08 01:58:03;;;;;;;47.97;20.20;;;;;;;3.05;83.94;99558.16;5116311;27;20067;-67
2022/11/08 02:00:28;;;;;;;31.45;15.50;;;;;;;3.10;83.76;99558.78;5086306;27;20042;-67
2022/11/08 02:02:59;;;;;;;34.90;14.98;;;;;;;3.23;82.89;99552.94;5101346;27;20038;-68
2022/11/08 02:05:25;;;;;;;32.03;13.88;;;;;;;3.15;82.66;99536.63;5101709;27;20520;-68
2022/11/08 02:07:51;;;;;;;21.88;10.80;;;;;;;3.42;82.00;99541.59;5086982;27;20039;-75
2022/11/08 02:10:16;;;;;;;30.80;13.32;;;;;;;3.36;81.87;99531.34;5099562;27;20450;-76
2022/11/08 02:12:41;;;;;;;34.85;13.55;;;;;;;3.14;81.88;99534.06;5092708;27;20042;-73
2022/11/08 02:15:07;;;;;;;38.17;17.25;;;;;;;2.99;82.30;99525.03;5080720;27;20043;-72
2022/11/08 02:17:31;;;;;;;35.58;16.33;;;;;;;2.92;83.07;99528.84;5079465;27;20039;-67
2022/11/08 02:19:56;;;;;;;34.60;16.98;;;;;;;2.97;83.23;99544.44;5087725;27;20051;-68
2022/11/08 02:22:35;;;;;;;29.58;14.98;;;;;;;2.98;83.84;99539.09;5096448;27;20050;-68
2022/11/08 02:25:00;;;;;;;34.22;14.63;;;;;;;3.04;83.85;99538.88;5118201;27;20516;-68
2022/11/08 02:27:25;;;;;;;31.27;13.60;;;;;;;3.05;83.72;99537.91;5112896;27;20043;-66
2022/11/08 02:29:52;;;;;;;35.80;16.95;;;;;;;3.00;84.24;99537.28;5100053;27;20096;-70
2022/11/08 02:32:17;;;;;;;30.48;14.90;;;;;;;3.12;83.92;99536.75;5115456;27;20564;-69
2022/11/08 02:34:50;;;;;;;27.40;13.98;;;;;;;3.12;84.16;99518.31;5101506;27;20462;-67
2022/11/08 02:37:17;;;;;;;33.55;14.15;;;;;;;3.10;84.11;99522.78;5101796;27;20094;-67
2022/11/08 02:39:42;;;;;;;30.50;13.48;;;;;;;3.13;84.02;99511.28;5057028;27;20043;-67
2022/11/08 02:42:06;;;;;;;27.77;15.10;;;;;;;3.19;84.12;99518.88;5084336;27;20043;-69
2022/11/08 02:44:31;;;;;;;28.60;15.13;;;;;;;3.22;83.84;99519.63;5109905;27;20039;-68
2022/11/08 02:46:55;;;;;;;28.95;14.52;;;;;;;3.26;83.89;99512.44;5122954;27;20039;-66
2022/11/08 02:49:21;;;;;;;26.77;14.65;;;;;;;3.21;83.83;99517.06;5105689;27;20494;-66
2022/11/08 02:51:45;;;;;;;30.15;16.38;;;;;;;3.17;83.83;99518.94;5102536;27;20503;-67
2022/11/08 02:54:10;;;;;;;35.88;17.45;;;;;;;3.08;84.09;99506.19;5102311;27;20413;-69
2022/11/08 02:56:34;;;;;;;33.35;14.55;;;;;;;3.17;84.65;99503.16;5081525;27;20060;-69
2022/11/08 02:58:59;;;;;;;28.92;14.60;;;;;;;3.21;84.52;99510.00;5096943;27;20208;-68
2022/11/08 03:01:24;;;;;;;37.22;14.95;;;;;;;3.27;84.52;99509.72;5099103;27;20358;-69
2022/11/08 03:03:48;;;;;;;30.67;14.60;;;;;;;3.30;84.28;99514.00;5094045;27;20066;-75
2022/11/08 03:06:16;;;;;;;34.42;16.75;;;;;;;3.33;83.87;99507.75;5107431;27;20031;-72
2022/11/08 03:08:40;;;;;;;36.03;15.93;;;;;;;3.21;83.93;99488.06;5095185;27;20501;-72
2022/11/08 03:11:05;;;;;;;29.88;14.48;;;;;;;3.23;84.06;99491.50;5080405;27;20489;-69
2022/11/08 03:13:29;;;;;;;30.30;15.70;;;;;;;3.32;84.16;99495.50;5095845;27;20505;-71
2022/11/08 03:15:54;;;;;;;31.15;15.13;;;;;;;3.29;84.03;99499.13;5096318;27;20087;-73
2022/11/08 03:18:19;;;;;;;35.50;15.02;;;;;;;3.22;84.17;99509.09;5083113;27;20053;-72
2022/11/08 03:20:43;;;;;;;36.15;16.33;;;;;;;3.25;84.41;99500.19;5098579;27;20084;-71
2022/11/08 03:23:08;;;;;;;29.17;15.45;;;;;;;3.33;84.14;99494.56;5099167;27;20051;-71
2022/11/08 03:25:33;;;;;;;30.13;14.23;;;;;;;3.34;83.81;99493.66;5099570;27;20035;-71
2022/11/08 03:28:03;;;;;;;29.50;13.48;;;;;;;3.35;83.85;99484.84;5083304;27;20043;-71
2022/11/08 03:30:28;;;;;;;34.03;16.35;;;;;;;3.23;83.82;99487.09;5102073;27;20119;-68
2022/11/08 03:32:52;;;;;;;25.27;12.73;;;;;;;3.21;84.15;99477.53;5098510;27;20081;-70
2022/11/08 03:35:17;;;;;;;25.58;13.48;;;;;;;3.18;84.72;99489.06;5081629;28;20557;-70
2022/11/08 03:37:51;;;;;;;24.65;13.30;;;;;;;3.27;84.55;99477.28;5100834;27;20047;-71
2022/11/08 03:40:16;;;;;;;29.10;14.63;;;;;;;3.14;84.71;99476.09;5081234;28;20035;-73
2022/11/08 03:42:41;;;;;;;25.80;13.70;;;;;;;3.21;84.50;99467.84;5099825;27;20046;-71
2022/11/08 03:45:06;;;;;;;27.45;14.98;;;;;;;3.21;84.92;99472.28;5099313;27;20047;-72
2022/11/08 03:47:36;;;;;;;27.13;13.85;;;;;;;3.19;85.09;99461.78;5112119;27;20126;-72
2022/11/08 03:50:01;;;;;;;29.73;14.07;;;;;;;3.24;84.91;99465.09;5078360;28;20027;-72
2022/11/08 03:52:26;;;;;;;25.75;13.48;;;;;;;3.27;84.73;99462.28;5079941;28;20043;-72
2022/11/08 03:54:50;;;;;;;24.98;13.05;;;;;;;3.30;84.58;99471.84;5078620;28;20049;-72
2022/11/08 03:57:15;;;;;;;24.15;12.93;;;;;;;3.44;84.37;99460.69;5097157;27;20047;-71
2022/11/08 03:59:39;;;;;;;24.27;12.05;;;;;;;3.48;83.88;99504.44;5096615;27;20158;-71
2022/11/08 04:02:04;;;;;;;21.80;12.02;;;;;;;3.44;83.76;99466.81;5096789;27;20049;-72
2022/11/08 04:04:28;;;;;;;26.75;13.13;;;;;;;3.44;83.74;99468.59;5097242;27;20393;-71
2022/11/08 04:06:53;;;;;;;22.60;12.13;;;;;;;3.39;84.13;99474.06;5096553;27;20095;-71
2022/11/08 04:09:18;;;;;;;28.10;14.07;;;;;;;3.43;84.13;99469.53;5098936;27;20050;-70
2022/11/08 04:21:17;;;;;;;25.50;12.43;;;;;;;3.42;83.67;99465.19;5057602;28;20043;-71
2022/11/08 04:22:55;;;;;;;23.45;12.95;;;;;;;3.39;84.78;99470.56;5055517;28;20079;-73
2022/11/08 04:25:20;;;;;;;24.80;12.23;;;;;;;3.52;84.10;99474.38;5059970;28;20036;-69
2022/11/08 04:27:46;;;;;;;23.48;12.35;;;;;;;3.53;83.89;99468.19;5062794;28;20049;-74
2022/11/08 04:30:11;;;;;;;21.65;13.02;;;;;;;3.52;84.48;99471.75;5059927;28;20071;-73
2022/11/08 04:32:36;;;;;;;25.00;12.80;;;;;;;3.58;84.04;99455.66;5052403;28;20124;-72
2022/11/08 04:35:00;;;;;;;26.17;13.13;;;;;;;3.55;83.76;99455.78;5052292;28;20403;-72
2022/11/08 04:37:25;;;;;;;19.98;10.77;;;;;;;3.53;83.58;99461.13;5035961;28;20031;-71
2022/11/08 04:39:50;;;;;;;23.83;12.48;;;;;;;3.52;83.42;99456.78;5054192;28;20051;-71
2022/11/08 04:42:15;;;;;;;19.92;11.77;;;;;;;3.52;83.60;99456.78;5054022;28;20060;-70
2022/11/08 04:44:39;;;;;;;25.00;11.00;;;;;;;3.58;83.56;99467.06;5037090;28;20039;-66
2022/11/08 04:47:04;;;;;;;22.38;12.20;;;;;;;3.62;83.59;99454.56;5054308;28;20696;-65
2022/11/08 04:49:29;;;;;;;19.13;11.20;;;;;;;3.61;83.34;99455.53;5076641;27;20047;-68
2022/11/08 04:51:53;;;;;;;24.88;14.68;;;;;;;3.50;83.48;99460.44;5099182;27;20050;-68
2022/11/08 04:54:18;;;;;;;18.92;10.73;;;;;;;3.47;84.18;99450.88;5099030;27;20031;-67
2022/11/08 04:56:43;;;;;;;24.77;12.35;;;;;;;3.53;83.83;99442.69;5070563;27;20361;-67
2022/11/08 04:59:08;;;;;;;17.58;10.00;;;;;;;3.55;83.88;99458.44;5101801;27;20069;-69
2022/11/08 05:01:33;;;;;;;23.10;12.13;;;;;;;3.46;83.85;99462.34;5082308;27;20063;-69
2022/11/08 05:03:58;;;;;;;19.25;11.65;;;;;;;3.41;84.06;99447.66;5100529;27;20135;-68
2022/11/08 05:06:28;;;;;;;20.80;9.50;;;;;;;3.49;84.25;99453.44;5065318;27;20050;-70
2022/11/08 05:08:54;;;;;;;16.05;9.60;;;;;;;3.49;84.07;99443.78;5101081;27;20524;-71
2022/11/08 05:11:21;;;;;;;17.45;10.38;;;;;;;3.51;84.01;99454.22;5082606;27;20511;-71
2022/11/08 05:13:46;;;;;;;21.23;9.55;;;;;;;3.56;84.22;99446.97;5099533;27;20043;-69
2022/11/08 05:16:31;;;;;;;20.00;10.65;;;;;;;3.63;83.89;99443.97;5080390;27;20049;-68
2022/11/08 05:18:56;;;;;;;20.77;11.63;;;;;;;3.55;83.73;99439.97;5099536;27;20050;-72
2022/11/08 05:24:08;;;;;;;17.33;10.23;;;;;;;3.54;84.17;99447.03;5098412;27;20084;-71
2022/11/08 05:26:34;;;;;;;19.20;11.07;;;;;;;3.56;84.02;99446.97;5098886;27;20378;-70
2022/11/08 05:28:59;;;;;;;18.40;10.90;;;;;;;3.49;83.88;99443.78;5100202;27;20078;-70
2022/11/08 05:31:24;;;;;;;18.90;10.05;;;;;;;3.53;84.20;99436.56;5081180;27;20070;-71
2022/11/08 05:33:49;;;;;;;19.65;11.85;;;;;;;3.45;84.56;99444.81;5100609;27;20130;-71
2022/11/08 05:36:14;;;;;;;26.35;14.48;;;;;;;3.39;84.96;99444.22;5099737;27;20130;-71
2022/11/08 05:38:40;;;;;;;21.50;10.88;;;;;;;3.46;85.20;99441.25;5099844;27;20501;-71
2022/11/08 05:41:14;;;;;;;20.08;9.95;;;;;;;3.52;84.87;99424.31;5101056;27;20035;-73
2022/11/08 05:43:39;;;;;;;;;;;;;;;3.63;84.94;99437.84;5082673;27;20038;-73
2022/11/08 05:46:04;;;;;;;22.42;10.48;;;;;;;3.62;84.54;99433.50;5066254;27;19922;-72
2022/11/08 05:48:29;;;;;;;18.65;8.85;;;;;;;3.56;84.50;99425.88;5109845;27;20031;-72
2022/11/08 05:50:54;;;;;;;19.77;9.82;;;;;;;3.57;84.75;99428.44;5112929;27;20103;-72
2022/11/08 05:53:19;;;;;;;16.88;9.90;;;;;;;3.54;84.77;99425.94;5079827;27;20084;-72
2022/11/08 05:55:44;;;;;;;17.10;9.73;;;;;;;3.53;84.76;99428.66;5098671;27;20046;-72
2022/11/08 05:58:08;;;;;;;20.33;11.18;;;;;;;3.50;85.16;99431.44;5102722;27;20034;-73
2022/11/08 06:00:33;;;;;;;22.48;12.60;;;;;;;3.41;85.13;99431.84;5118647;27;20060;-72
2022/11/08 06:02:58;;;;;;;18.80;9.80;;;;;;;3.49;85.47;99427.09;5083713;27;20047;-72
2022/11/08 06:05:22;;;;;;;18.10;10.07;;;;;;;3.47;85.60;99421.03;5097736;27;20046;-71
2022/11/08 06:07:47;;;;;;;20.38;10.57;;;;;;;3.60;85.18;99422.19;5097212;27;20034;-73
2022/11/08 06:10:12;;;;;;;21.33;11.13;;;;;;;3.57;85.09;99423.19;5079195;27;20046;-72
2022/11/08 06:12:37;;;;;;;18.15;9.90;;;;;;;3.60;85.54;99422.19;5097496;27;20046;-71
2022/11/08 06:15:01;;;;;;;19.80;11.45;;;;;;;3.61;85.73;99418.63;5096892;27;20043;-71
2022/11/08 06:17:27;;;;;;;19.73;10.80;;;;;;;3.59;85.59;99412.56;5091696;27;20513;-72
2022/11/08 06:19:51;;;;;;;25.48;11.75;;;;;;;3.65;85.69;99417.53;5116604;27;20519;-72
2022/11/08 06:22:16;;;;;;;28.75;15.02;;;;;;;3.52;85.44;99408.50;5096813;27;20050;-74
2022/11/08 06:24:40;;;;;;;18.65;10.07;;;;;;;3.63;85.85;99408.84;5078532;27;20038;-73
2022/11/08 06:27:05;;;;;;;21.58;11.63;;;;;;;3.69;85.51;99412.97;5096915;27;20180;-73
2022/11/08 06:29:30;;;;;;;20.73;11.90;;;;;;;3.71;85.26;99408.50;5078474;27;20051;-73
2022/11/08 06:31:55;;;;;;;15.77;9.85;;;;;;;3.74;85.25;99411.81;5098270;27;20093;-73
2022/11/08 06:34:19;;;;;;;21.90;11.52;;;;;;;3.77;85.23;99397.66;5098248;27;20046;-72
2022/11/08 06:36:44;;;;;;;22.02;10.77;;;;;;;3.84;85.52;99393.78;5096832;27;20084;-71
2022/11/08 06:39:09;;;;;;;20.98;11.82;;;;;;;3.94;84.94;99398.56;5078168;27;20039;-72
2022/11/08 06:41:33;;;;;;;26.35;14.23;;;;;;;3.81;84.79;99400.06;5078603;27;20505;-71
2022/11/08 06:43:58;;;;;;;23.20;11.32;;;;;;;3.79;84.79;99401.06;5078658;27;20042;-72
2022/11/08 06:46:23;;;;;;;27.23;13.38;;;;;;;3.85;84.91;99398.97;5103165;27;20038;-72
2022/11/08 06:48:47;;;;;;;25.42;13.68;;;;;;;3.85;84.80;99409.53;5070958;27;20034;-72
2022/11/08 06:51:12;;;;;;;23.35;12.80;;;;;;;3.80;84.42;99402.78;5097841;27;20030;-72
2022/11/08 06:53:37;;;;;;;21.58;13.02;;;;;;;3.74;85.33;99410.97;5079237;27;20035;-70
2022/11/08 06:56:02;;;;;;;27.48;13.60;;;;;;;3.67;85.61;99418.31;5097057;27;20046;-71
2022/11/08 06:58:27;;;;;;;19.25;10.90;;;;;;;3.78;85.84;99418.66;5078342;27;20031;-70
2022/11/08 07:00:52;;;;;;;23.08;11.85;;;;;;;3.80;85.28;99419.47;5110003;27;20046;-71
2022/11/08 07:03:17;;;;;;;25.80;12.57;;;;;;;3.85;85.74;99433.25;5095348;27;20066;-70
2022/11/08 07:05:42;;;;;;;27.55;13.93;;;;;;;3.90;85.33;99417.22;5096708;27;20204;-71
2022/11/08 07:08:06;;;;;;;25.50;13.10;;;;;;;3.93;84.88;99420.59;5113696;27;20497;-70
2022/11/08 07:10:32;;;;;;;22.42;11.05;;;;;;;3.99;85.12;99424.69;5108227;27;20121;-72
2022/11/08 07:13:03;;;;;;;24.83;13.40;;;;;;;3.99;85.19;99420.28;5096684;27;20042;-74
2022/11/08 07:15:29;;;;;;;27.55;12.73;;;;;;;3.97;84.74;99421.28;5096941;27;20458;-75
2022/11/08 07:17:53;;;;;;;35.50;16.95;;;;;;;3.94;85.00;99421.44;5096355;27;20067;-74
2022/11/08 07:20:18;;;;;;;32.22;14.13;;;;;;;3.98;85.07;99415.06;5096566;27;20075;-75
2022/11/08 07:22:43;;;;;;;23.73;13.73;;;;;;;4.03;84.65;99414.88;5078112;27;20047;-73
2022/11/08 07:25:07;;;;;;;22.55;13.20;;;;;;;3.99;84.64;99401.81;5096628;27;20035;-75
2022/11/08 07:27:32;;;;;;;29.98;13.77;;;;;;;3.94;84.77;99406.47;5078303;27;20461;-75
2022/11/08 07:29:57;;;;;;;32.30;16.08;;;;;;;3.91;84.70;99396.06;5078190;27;20034;-74
2022/11/08 07:32:21;;;;;;;27.98;14.85;;;;;;;3.79;85.28;99412.47;5077437;27;20481;-72
2022/11/08 07:34:46;;;;;;;27.23;14.13;;;;;;;3.81;85.51;99413.25;5095718;27;20043;-73
2022/11/08 07:37:11;;;;;;;30.58;16.02;;;;;;;3.83;85.97;99408.78;5095750;27;20065;-72
2022/11/08 07:39:36;;;;;;;29.00;15.07;;;;;;;3.86;85.67;99398.06;5095755;27;20087;-73
2022/11/08 07:42:00;;;;;;;24.48;12.95;;;;;;;3.94;85.88;99401.19;5095796;27;20133;-71
2022/11/08 07:44:27;;;;;;;23.35;12.27;;;;;;;3.92;85.60;99399.56;5060763;28;20493;-71
2022/11/08 07:46:52;;;;;;;23.00;12.88;;;;;;;4.02;85.81;99382.34;5105234;27;20522;-72
2022/11/08 07:49:16;;;;;;;27.75;14.48;;;;;;;4.18;85.80;99385.94;5081827;27;20046;-71
2022/11/08 07:51:41;;;;;;;24.20;12.32;;;;;;;4.15;85.12;99395.81;5095951;27;20047;-71
2022/11/08 07:54:06;;;;;;;21.92;12.00;;;;;;;4.20;84.89;99389.34;5095616;27;20043;-72
2022/11/08 07:56:30;;;;;;;24.65;13.38;;;;;;;4.10;85.44;99384.59;5074750;28;20039;-72
2022/11/08 07:58:55;;;;;;;25.05;13.65;;;;;;;4.18;85.31;99380.66;5095992;27;20047;-72
2022/11/08 08:01:19;;;;;;;24.23;12.15;;;;;;;4.23;85.88;99380.44;5095560;27;20074;-73
2022/11/08 08:03:44;;;;;;;22.80;13.20;;;;;;;4.30;85.30;99380.03;5096041;27;20085;-73
2022/11/08 08:06:09;;;;;;;24.35;12.13;;;;;;;4.36;84.83;99373.63;5110889;27;20066;-73
2022/11/08 08:08:34;;;;;;;20.88;11.73;;;;;;;4.36;84.90;99382.41;5079792;28;20118;-73
2022/11/08 08:11:00;;;;;;;26.73;13.55;;;;;;;4.34;84.75;99378.97;5096771;27;20130;-75
2022/11/08 08:13:25;;;;;;;23.63;13.05;;;;;;;4.25;84.87;99383.84;5096210;27;20137;-74
2022/11/08 08:15:49;;;;;;;22.63;12.68;;;;;;;4.20;85.49;99389.34;5080666;28;20043;-74
2022/11/08 08:18:16;;;;;;;26.48;12.18;;;;;;;4.31;85.21;99397.59;5098828;27;20039;-72
2022/11/08 08:20:40;;;;;;;19.42;12.07;;;;;;;4.37;85.33;99389.38;5081155;28;20046;-72
2022/11/08 08:23:05;;;;;;;20.20;11.45;;;;;;;4.43;85.55;99395.25;5102007;27;20062;-71
2022/11/08 08:25:30;;;;;;;26.65;14.07;;;;;;;4.38;85.37;99384.97;5081309;27;20118;-72
2022/11/08 08:27:56;;;;;;;24.20;11.18;;;;;;;4.46;85.28;99390.69;5100682;27;20043;-71
2022/11/08 08:30:23;;;;;;;27.20;12.35;;;;;;;4.43;84.97;99384.72;5099178;27;20096;-72
2022/11/08 08:32:49;;;;;;;20.58;12.50;;;;;;;4.42;85.48;99389.13;5109346;27;20031;-72
2022/11/08 08:35:14;;;;;;;18.67;10.98;;;;;;;4.47;84.91;99378.34;5118048;27;20524;-73
2022/11/08 08:37:39;;;;;;;21.23;12.05;;;;;;;4.40;84.94;99382.25;5098998;27;20401;-72
2022/11/08 08:40:04;;;;;;;19.98;10.73;;;;;;;4.49;84.84;99389.69;5098953;27;20557;-72
2022/11/08 08:42:31;;;;;;;16.23;9.38;;;;;;;4.57;85.56;99377.81;5081405;27;20190;-70
2022/11/08 08:44:56;;;;;;;19.00;9.73;;;;;;;4.62;84.69;99386.34;5111172;27;20050;-71
2022/11/08 08:47:21;;;;;;;18.73;10.20;;;;;;;4.55;84.82;99390.22;5119917;27;20043;-71
2022/11/08 08:49:45;;;;;;;20.52;10.13;;;;;;;4.59;84.98;99389.16;5099367;27;20081;-71
2022/11/08 08:52:10;;;;;;;21.40;11.63;;;;;;;4.52;85.11;99386.88;5099030;27;20039;-71
2022/11/08 08:54:34;;;;;;;18.52;9.20;;;;;;;4.56;84.89;99380.53;5080067;27;20152;-74
2022/11/08 08:56:59;;;;;;;15.50;9.95;;;;;;;4.64;84.91;99376.53;5081824;27;20027;-71
2022/11/08 08:59:23;;;;;;;20.90;10.68;;;;;;;4.71;85.16;99383.25;5114669;27;20042;-73
2022/11/08 09:01:48;;;;;;;17.55;10.15;;;;;;;4.69;84.92;99384.25;5080604;27;20485;-71
2022/11/08 09:04:13;;;;;;;21.95;9.65;;;;;;;4.63;84.76;99374.84;5080410;27;20051;-71
2022/11/08 09:06:37;;;;;;;18.55;9.50;;;;;;;4.70;85.09;99370.13;5080313;27;20065;-70
2022/11/08 09:09:02;;;;;;;15.90;9.35;;;;;;;4.85;84.88;99365.81;5098880;27;20042;-72
2022/11/08 09:11:27;;;;;;;17.17;9.15;;;;;;;4.77;84.88;99371.50;5079853;27;20062;-72
2022/11/08 09:13:51;;;;;;;15.35;9.43;;;;;;;4.72;85.00;99369.09;5079992;27;20039;-71
2022/11/08 09:16:16;;;;;;;15.75;9.43;;;;;;;4.82;85.11;99369.47;5098375;27;20096;-72
2022/11/08 09:18:41;;;;;;;16.55;8.75;;;;;;;4.80;84.51;99360.78;5079676;27;20051;-72
2022/11/08 09:21:06;;;;;;;13.90;8.55;;;;;;;4.80;84.69;99365.19;5098391;27;20043;-70
2022/11/08 09:23:31;;;;;;;15.82;9.30;;;;;;;4.74;84.49;99355.78;5079291;27;20035;-70
2022/11/08 09:25:57;;;;;;;15.95;9.13;;;;;;;4.74;84.56;99364.56;5098075;27;20482;-70
2022/11/08 09:28:22;;;;;;;14.95;8.48;;;;;;;4.74;84.35;99363.72;5079654;27;20072;-70
2022/11/08 09:30:46;;;;;;;15.63;9.50;;;;;;;4.72;84.74;99363.81;5079483;27;20047;-71
2022/11/08 09:33:11;;;;;;;13.60;8.90;;;;;;;4.72;84.25;99363.81;5079343;28;20835;-68
2022/11/08 09:35:36;;;;;;;18.30;9.70;;;;;;;4.64;84.93;99357.22;5094636;27;20039;-70
2022/11/08 09:38:00;;;;;;;15.40;9.10;;;;;;;4.61;84.69;99363.53;5098735;27;20039;-70
2022/11/08 09:40:58;;;;;;;21.20;9.25;;;;;;;4.67;84.68;99359.69;5079813;27;20046;-69
2022/11/08 09:43:42;;;;;;;16.02;8.00;;;;;;;4.65;85.17;99357.13;5073044;27;20055;-68
2022/11/08 09:46:10;;;;;;;17.63;9.52;;;;;;;4.66;84.99;99356.19;5101748;27;20042;-72
2022/11/08 09:48:39;;;;;;;15.98;8.65;;;;;;;4.64;85.65;99355.44;5073901;27;20039;-68
2022/11/08 09:51:21;;;;;;;16.98;9.13;;;;;;;4.73;85.15;99348.84;5097720;27;20038;-73
2022/11/08 09:53:51;;;;;;;12.43;7.90;;;;;;;4.72;85.28;99341.84;5108951;27;20111;-70
2022/11/08 09:56:24;;;;;;;13.10;7.95;;;;;;;4.69;85.69;99348.13;5102102;27;20046;-72
2022/11/08 09:59:01;;;;;;;17.58;8.90;;;;;;;4.76;85.46;99343.38;5099966;27;20074;-73
2022/11/08 10:01:30;;;;;;;13.52;7.53;;;;;;;4.78;85.06;99346.78;5066926;27;20035;-74
2022/11/08 10:04:01;;;;;;;16.48;8.45;;;;;;;4.78;84.88;99344.16;5099717;27;20050;-69
2022/11/08 10:07:10;;;;;;;14.25;7.95;;;;;;;4.77;85.31;99344.22;5081439;27;20050;-72
2022/11/08 10:10:00;;;;;;;14.07;7.88;;;;;;;4.77;85.62;99345.06;5077730;27;20057;-68
2022/11/08 10:12:42;;;;;;;12.73;8.05;;;;;;;4.80;84.94;99336.16;5099157;27;20076;-67
2022/11/08 10:15:19;;;;;;;17.48;9.43;;;;;;;4.66;85.21;99343.00;5061909;27;20031;-70
2022/11/08 10:18:21;;;;;;;19.42;9.63;;;;;;;4.65;85.75;99341.28;5078603;27;20125;-69
2022/11/08 10:21:01;;;;;;;16.15;8.70;;;;;;;4.68;85.90;99332.38;5097448;27;20043;-72
2022/11/08 10:23:42;;;;;;;13.23;8.07;;;;;;;4.69;86.04;99342.84;5078718;27;20058;-73
2022/11/08 10:26:16;;;;;;;17.35;9.32;;;;;;;4.71;85.67;99341.00;5097073;27;20039;-68
2022/11/08 10:28:49;;;;;;;12.02;6.85;;;;;;;4.75;86.07;99339.88;5065156;27;20038;-71
2022/11/08 10:31:14;;;;;;;15.00;9.13;;;;;;;4.68;85.41;99343.78;5088052;27;20046;-69
2022/11/08 10:33:49;;;;;;;15.35;8.73;;;;;;;4.68;85.94;99338.50;5078826;27;20035;-73
2022/11/08 10:36:50;;;;;;;13.88;9.30;;;;;;;4.73;86.08;99339.13;5078532;27;20043;-71
2022/11/08 10:39:27;;;;;;;12.45;7.85;;;;;;;4.78;85.51;99330.09;5097152;27;20111;-69
2022/11/08 10:42:04;;;;;;;12.35;7.00;;;;;;;4.71;86.33;99337.50;5078271;27;20038;-71
2022/11/08 10:44:29;;;;;;;12.13;7.13;;;;;;;4.74;85.75;99334.66;5096619;27;20043;-70
2022/11/08 10:47:00;;;;;;;16.13;7.60;;;;;;;4.71;85.82;99342.78;5067373;27;20043;-70
2022/11/08 10:49:31;;;;;;;12.10;7.70;;;;;;;4.67;86.31;99338.56;5096196;27;20425;-72
2022/11/08 10:52:19;;;;;;;14.07;8.77;;;;;;;4.69;86.09;99348.13;5096578;27;20082;-69
2022/11/08 10:54:48;;;;;;;15.40;8.48;;;;;;;4.63;86.36;99329.09;5071866;27;20045;-68
2022/11/08 10:57:33;;;;;;;14.10;8.07;;;;;;;4.62;86.50;99336.19;5096545;27;20050;-69
2022/11/08 11:00:19;;;;;;;15.85;8.23;;;;;;;4.51;86.60;99325.34;5077832;27;20091;-69
2022/11/08 11:02:48;;;;;;;11.15;7.07;;;;;;;4.51;86.60;99322.69;5077877;27;20061;-68
2022/11/08 11:05:22;;;;;;;10.52;6.20;;;;;;;4.54;86.87;99329.59;5096248;27;20050;-68
2022/11/08 11:07:56;;;;;;;15.07;6.40;;;;;;;4.60;86.79;99316.09;5077562;27;20058;-69
2022/11/08 11:10:27;;;;;;;9.73;6.13;;;;;;;4.57;86.31;99325.00;5077883;27;20042;-70
2022/11/08 11:13:00;;;;;;;11.80;6.72;;;;;;;4.53;86.57;99328.72;5077864;27;20047;-71
2022/11/08 11:15:30;;;;;;;14.52;6.57;;;;;;;4.59;87.15;99317.00;5096407;27;20694;-71
2022/11/08 11:17:55;;;;;;;10.70;6.35;;;;;;;4.63;86.81;99319.38;5077946;27;20632;-70
2022/11/08 11:20:22;;;;;;;15.68;6.97;;;;;;;4.66;86.69;99305.19;5095968;27;20521;-73
2022/11/08 11:22:47;;;;;;;13.88;6.47;;;;;;;4.69;87.02;99305.88;5096213;27;20123;-70
2022/11/08 11:25:22;;;;;;;10.90;5.70;;;;;;;4.73;86.81;99312.72;5096361;27;20132;-72
2022/11/08 11:27:57;;;;;;;11.98;6.68;;;;;;;4.81;86.36;99307.03;5097455;27;20047;-73
2022/11/08 11:30:28;;;;;;;11.20;6.03;;;;;;;4.63;86.27;99306.19;5113262;27;20027;-71
2022/11/08 11:33:21;;;;;;;9.55;6.30;;;;;;;4.73;86.47;99301.31;5094973;27;20043;-70
2022/11/08 11:35:50;;;;;;;11.88;6.72;;;;;;;4.57;87.09;99306.53;5098052;27;20039;-71
2022/11/08 11:38:37;;;;;;;12.20;6.80;;;;;;;4.73;87.26;99307.44;5100655;27;20488;-75
2022/11/08 11:41:17;;;;;;;13.00;6.40;;;;;;;4.68;87.05;99309.47;5077783;27;20509;-73
2022/11/08 11:44:14;;;;;;;10.80;6.57;;;;;;;4.61;87.18;99313.38;5107658;27;20042;-71
2022/11/08 11:46:44;;;;;;;10.13;5.85;;;;;;;4.63;86.96;99322.03;5097693;27;20037;-74
2022/11/08 11:49:18;;;;;;;7.53;5.75;;;;;;;4.64;86.97;99313.19;5104716;27;20470;-72
2022/11/08 11:51:42;;;;;;;8.20;5.45;;;;;;;4.65;87.34;99309.59;5097296;27;20035;-74